• Join FlightAware (Why Join?)
  • Login
  • US Flag 
12:38AM EDT


 

Airport Tracker/Info


-or-


 

Live Flight TrackerFlight Track Log ✈ N822DK ✈ 09-Jul-2013 ✈ KELP - KSKX

Flight Track Log - Related Links

Times and Time Zones

All times are in EDT time to prevent confusion due to time zone crossing. See the N822DK flight status page for this flight to view local times or setup timezone preferences in your user account.

Time Position Orientation Groundspeed Altitude Reporting Facility
EDT Latitude Longitude Course Direction KTS MPH feet Rate Location/Type
04:43PM 31.8425 -106.3428 312° West 149 171 5,800  Level Albuquerque Center
04:44PM 31.8775 -106.3592 338° Northwest 181 208 7,500 1,860 Climbing Albuquerque Center
04:45PM 31.8856 -106.4147 280° West 177 204 9,600 1,920 Climbing Albuquerque Center
04:46PM 31.8917 -106.4731 277° West 185 213 11,400 1,800 Climbing Albuquerque Center
04:48PM 32.0781 -106.6658 326° Northwest  Level FlightAware Approximate
04:48PM 31.9097 -106.5600 284° West 184 212 14,100  Level Albuquerque Center
04:49PM 32.1242 -106.7156 312° West  Level FlightAware Approximate
04:49PM 31.9397 -106.5919 318° Northwest 181 208 15,400  Level Albuquerque Center
04:50PM 31.9914 -106.6331 326° Northwest 186 214 17,100 1,380 Climbing Albuquerque Center
04:51PM 32.0356 -106.6694 325° Northwest 192 221 18,300 1,200 Climbing Albuquerque Center
04:52PM 32.0764 -106.7086 321° Northwest 191 220 19,600 1,140 Climbing Albuquerque Center
04:53PM 32.1206 -106.7475 323° Northwest 198 228 20,700 960 Climbing Albuquerque Center
04:54PM 32.1672 -106.7922 321° Northwest 213 245 21,600 900 Climbing Albuquerque Center
04:55PM 32.2142 -106.8364 321° Northwest 216 249 22,600 1,020 Climbing Albuquerque Center
04:56PM 32.2694 -106.8856 323° Northwest 216 249 23,800 960 Climbing Albuquerque Center
04:57PM 32.3269 -106.9144 337° Northwest 208 239 24,600 540 Climbing Albuquerque Center
04:58PM 32.3878 -106.9369 343° North 230 265 25,000 180 Climbing Albuquerque Center
04:59PM 32.4478 -106.9608 341° North 241 277 25,000  Level Albuquerque Center
05:00PM 32.5158 -106.9872 342° North 252 290 25,000  Level Albuquerque Center
05:01PM 32.5850 -107.0150 341° North 260 299 25,000  Level Albuquerque Center
05:02PM 32.6544 -107.0408 343° North 261 300 25,000  Level Albuquerque Center
05:03PM 32.7350 -107.0717 342° North 262 302 25,000  Level Albuquerque Center
05:04PM 32.8033 -107.0975 342° North 260 299 25,000  Level Albuquerque Center
05:05PM 32.8719 -107.1242 342° North 259 298 25,000  Level Albuquerque Center
05:06PM 32.9400 -107.1508 342° North 260 299 25,000  Level Albuquerque Center
05:07PM 33.0092 -107.1786 341° North 262 302 25,000  Level Albuquerque Center
05:08PM 33.0914 -107.2089 343° North 259 298 25,000  Level Albuquerque Center
05:09PM 33.1608 -107.2350 343° North 260 299 25,000  Level Albuquerque Center
05:10PM 33.2314 -107.2633 341° North 266 306 25,000  Level Albuquerque Center
05:11PM 33.3019 -107.2836 346° North 264 304 25,000  Level Albuquerque Center
05:12PM 33.3664 -107.2425 28° Northeast 264 304 25,000  Level Albuquerque Center
05:13PM 33.4347 -107.2161 18° North 260 299 25,000  Level Albuquerque Center
05:14PM 33.5014 -107.1886 19° North 255 293 25,000  Level Albuquerque Center
05:15PM 33.5831 -107.1533 20° North 258 297 25,000  Level Albuquerque Center
05:17PM 33.6506 -107.1236 20° North 258 297 25,000  Level Albuquerque Center
05:18PM 33.7181 -107.0933 20° North 259 298 25,000  Level Albuquerque Center
05:19PM 33.7853 -107.0653 19° North 257 296 25,000  Level Albuquerque Center
05:20PM 33.8533 -107.0342 21° North 260 299 25,000  Level Albuquerque Center
05:21PM 33.9211 -107.0042 20° North 260 299 25,000  Level Albuquerque Center
05:22PM 33.9892 -106.9764 19° North 260 299 25,000  Level Albuquerque Center
05:23PM 34.0708 -106.9403 20° North 260 299 25,000  Level Albuquerque Center
05:24PM 34.1386 -106.9083 21° North 261 300 25,000  Level Albuquerque Center
05:25PM 34.2072 -106.8786 20° North 261 300 25,000  Level Albuquerque Center
05:26PM 34.2756 -106.8483 20° North 261 300 25,000  Level Albuquerque Center
05:27PM 34.3511 -106.8161 19° North 259 298 25,000  Level Albuquerque Center
05:28PM 34.4197 -106.7858 20° North 260 299 25,000  Level Albuquerque Center
05:29PM 34.4872 -106.7564 20° North 259 298 25,000  Level Albuquerque Center
05:30PM 34.5556 -106.7258 20° North 260 299 25,000  Level Albuquerque Center
05:31PM 34.6239 -106.6964 20° North 262 302 25,000  Level Albuquerque Center
05:32PM 34.6928 -106.6672 19° North 262 302 25,000  Level Albuquerque Center
05:33PM 34.7608 -106.6367 20° North 262 302 25,000  Level Albuquerque Center
05:34PM 34.8397 -106.6117 15° North 261 300 25,000  Level Albuquerque Center
05:35PM 34.9206 -106.5900 12° North 265 305 25,000  Level Albuquerque Center
05:36PM 34.9886 -106.5714 13° North 263 303 25,000  Level Albuquerque Center
05:37PM 35.0683 -106.5489 13° North 263 303 25,000  Level Albuquerque Center
05:38PM 35.1294 -106.5306 14° North 265 305 25,000 -300 Level Albuquerque Center
05:39PM 35.2003 -106.5128 12° North 264 304 24,500 -780 Descending Albuquerque Center
05:40PM 35.2758 -106.4928 12° North 241 277 23,400 -1,020 Descending Albuquerque Center
05:41PM 35.3367 -106.4789 11° North 227 261 22,400 -960 Descending Albuquerque Center
05:42PM 35.4011 -106.4694 North 230 265 21,500 -840 Descending Albuquerque Center
05:43PM 35.4611 -106.4603 North 224 258 20,800 -720 Descending Albuquerque Center
05:44PM 35.5197 -106.4567 North 214 246 20,100 -660 Descending Albuquerque Center
05:45PM 35.5811 -106.4569 360° North 218 251 19,500 -720 Descending Albuquerque Center
05:46PM 35.6561 -106.4522 North 224 258 18,700 -840 Descending Albuquerque Center
05:47PM 35.7169 -106.4483 North 221 254 17,800 -780 Descending Albuquerque Center
05:48PM 35.7792 -106.4450 North 223 257 17,200 -780 Descending Albuquerque Center
05:49PM 35.8369 -106.4378 North 213 245 16,200 -1,020 Descending Albuquerque Center
05:50PM 35.8947 -106.4267 North 206 237 15,200 -960 Descending Albuquerque Center
05:51PM 35.9511 -106.4092 14° North 212 244 14,300 -660 Descending Albuquerque Center
05:53PM 35.9981 -106.3789 28° Northeast 197 227 13,900 -420 Descending Albuquerque Center
05:54PM 36.0467 -106.3497 26° Northeast 193 222 13,500 -240 Descending Albuquerque Center
05:55PM 36.1058 -106.3117 27° Northeast 198 228 13,500 -120 Level Albuquerque Center
05:56PM 36.1500 -106.2753 34° Northeast 194 223 13,300 -180 Descending Albuquerque Center
05:57PM 36.1964 -106.2317 37° Northeast 197 227 13,200 -120 Descending Albuquerque Center